KRDU

Raleigh-Durham International Airport

Morrisville, North Carolina, USA
KRDU 192322Z 2000/2024 21006KT P6SM FEW250 FM200800 22008KT P6SM VCSH SCT025 OVC100 TEMPO 2015/2019 5SM -SHRA BKN015 OVC040 FM201900 25010G17KT P6SM BKN070 OVC150
Issued Valid From Valid To
Oct-19 @ 23:22 UTC
(3 hours ago)
Oct-20 @ 00:00 UTC
(2 hours ago)
Oct-21 @ 00:00 UTC
(in 22 hours)
Oct-20 @ 00:00 to Oct-20 @ 08:00
KRDU 192322Z 2000/2024 21006KT P6SM FEW250
Wind Visibility Clouds
210° at 6 knots Greater than 6 miles
  • Few at 25,000' AGL
From Oct-20 @ 08:00 to Oct-20 @ 19:00
FM200800 22008KT P6SM VCSH SCT025 OVC100
Wind Visibility Clouds
220° at 8 knots Greater than 6 miles
  • Scattered at 2,500' AGL
  • Overcast at 10,000' AGL
Temporary Oct-20 @ 15:00 to Oct-20 @ 19:00
TEMPO 2015/2019 5SM -SHRA BKN015 OVC040
Visibility Clouds Conditions
5 miles
  • Broken at 1,500' AGL
  • Overcast at 4,000' AGL
  • Light Rain
From Oct-20 @ 19:00 to Oct-21 @ 00:00
FM201900 25010G17KT P6SM BKN070 OVC150
Wind Visibility Clouds
250° at 10 knots
 Gusting to 17 knots
Greater than 6 miles
  • Broken at 7,000' AGL
  • Overcast at 15,000' AGL
KRDU 192322Z 2000/2024 21006KT P6SM FEW250 FM200800 22008KT P6SM VCSH SCT025 OVC100 TEMPO 2015/2019 5SM -SHRA BKN015 OVC040 FM201900 25010G17KT P6SM BKN070 OVC150
Issued Oct-19 @ 23:22 UTC
(3 hours ago)
Valid From Oct-20 @ 00:00 UTC
(2 hours ago)
Valid To Oct-21 @ 00:00 UTC
(in 22 hours)
Oct-20 @ 00:00 - Oct-20 @ 08:00
Wind Visibility
210° at 6 knots Greater than 6 miles
Clouds
  • Few at 25,000' AGL
From Oct-20 @ 08:00 - Oct-20 @ 19:00
Wind Visibility
220° at 8 knots Greater than 6 miles
Clouds
  • Scattered at 2,500' AGL
  • Overcast at 10,000' AGL
Temporary Oct-20 @ 15:00 - Oct-20 @ 19:00
Clouds
  • Broken at 1,500' AGL
  • Overcast at 4,000' AGL
Conditions
  • Light Rain
From Oct-20 @ 19:00 - Oct-21 @ 00:00
Wind Visibility
250° at 10 knots
 Gusting to 17 knots
Greater than 6 miles
Clouds
  • Broken at 7,000' AGL
  • Overcast at 15,000' AGL